0.740 kWh

EHAM AMSTERDAM/SCHIPHOL NLD -3 m.
METAR EHAM 220925Z 34009KT 310V010 9999 FEW028 BKN039 14/08 Q1033
NOSIG

EHAM AMSTERDAM/SCHIPHOL NLD -3 m.
TAF EHAM 220432Z 2206/2312 35012KT 9999 BKN025
BECMG 2215/2218 32005KT
BECMG 2220/2223 26010KT
BECMG 2304/2307 28017G27KT